createdAt,value
2022-11-26T00:02:18.808Z,5.75
2022-11-26T00:05:08.268Z,6.15
2022-11-26T00:08:00.372Z,5.65
2022-11-26T00:10:50.777Z,6.30
2022-11-26T00:13:39.498Z,4.10
2022-11-26T00:16:28.368Z,4.80
2022-11-26T00:19:18.353Z,4.45
2022-11-26T00:22:07.184Z,4.13
2022-11-26T00:24:56.318Z,5.35
2022-11-26T00:27:44.951Z,4.28
2022-11-26T00:30:33.716Z,4.90
2022-11-26T00:33:22.347Z,4.57
2022-11-26T00:36:18.528Z,4.90
2022-11-26T00:39:09.036Z,4.00
2022-11-26T00:41:57.584Z,3.95
2022-11-26T00:44:46.401Z,4.72
2022-11-26T00:47:34.786Z,3.72
2022-11-26T00:50:25.104Z,4.35
2022-11-26T00:53:16.691Z,5.03
2022-11-26T00:56:05.346Z,3.53
2022-11-26T00:58:53.918Z,3.00
2022-11-26T01:01:42.578Z,3.45
2022-11-26T01:04:31.169Z,3.03
2022-11-26T01:07:19.839Z,3.80
2022-11-26T01:10:16.902Z,2.45
2022-11-26T01:13:05.547Z,3.10
2022-11-26T01:15:54.086Z,4.47
2022-11-26T01:18:42.747Z,3.30
2022-11-26T01:21:33.385Z,3.45
2022-11-26T01:24:22.042Z,3.40
2022-11-26T01:27:12.860Z,2.53
2022-11-26T01:30:01.498Z,2.70
2022-11-26T01:32:50.587Z,3.05
2022-11-26T01:35:39.619Z,2.53
2022-11-26T01:38:28.289Z,2.65
2022-11-26T01:41:22.837Z,2.65
2022-11-26T01:44:19.231Z,2.97
2022-11-26T01:47:22.069Z,2.45
2022-11-26T01:50:46.923Z,2.38
2022-11-26T01:53:48.417Z,2.47
2022-11-26T01:56:39.823Z,1.98
2022-11-26T01:59:31.652Z,2.13
2022-11-26T02:02:21.817Z,2.20
2022-11-26T02:05:13.543Z,1.92
2022-11-26T02:08:02.572Z,1.65
2022-11-26T02:10:53.207Z,2.67
2022-11-26T02:13:42.018Z,1.88
2022-11-26T02:16:58.211Z,2.10
2022-11-26T02:20:12.523Z,1.77
2022-11-26T02:23:26.576Z,1.50
2022-11-26T02:26:43.720Z,2.13
2022-11-26T02:30:02.021Z,2.20
2022-11-26T02:33:00.206Z,1.75
2022-11-26T02:35:50.502Z,2.10
2022-11-26T02:38:40.059Z,1.48
2022-11-26T02:41:33.852Z,1.70
2022-11-26T02:44:24.259Z,1.92
2022-11-26T02:47:16.788Z,1.67
2022-11-26T02:50:08.957Z,2.03
2022-11-26T02:52:59.208Z,1.23
2022-11-26T02:55:49.809Z,1.48
2022-11-26T02:58:38.592Z,1.73
2022-11-26T03:01:31.844Z,1.38
2022-11-26T03:04:24.905Z,1.40
2022-11-26T03:07:14.887Z,1.27
2022-11-26T03:10:04.493Z,1.35
2022-11-26T03:12:53.217Z,1.55
2022-11-26T03:15:41.836Z,1.40
2022-11-26T03:18:30.574Z,1.30
2022-11-26T03:21:20.481Z,1.10
2022-11-26T03:24:09.354Z,1.02
2022-11-26T03:26:57.964Z,1.20
2022-11-26T03:29:46.705Z,1.88
2022-11-26T03:32:35.325Z,2.25
2022-11-26T03:35:24.018Z,1.05
2022-11-26T03:38:13.958Z,0.70
2022-11-26T03:41:04.605Z,0.77
2022-11-26T03:43:53.162Z,1.25
2022-11-26T03:46:42.023Z,1.38
2022-11-26T03:49:33.472Z,1.27
2022-11-26T03:52:22.139Z,0.88
2022-11-26T03:55:12.272Z,1.00
2022-11-26T03:58:01.030Z,2.13
2022-11-26T04:00:49.661Z,2.20
2022-11-26T04:03:38.541Z,1.20
2022-11-26T04:06:27.404Z,0.82
2022-11-26T04:09:18.426Z,0.70
2022-11-26T04:12:08.650Z,0.95
2022-11-26T04:14:57.256Z,0.98
2022-11-26T04:17:45.995Z,2.50
2022-11-26T04:20:34.573Z,0.82
2022-11-26T04:23:23.516Z,1.15
2022-11-26T04:26:12.141Z,0.93
2022-11-26T04:29:02.236Z,0.57
2022-11-26T04:31:51.095Z,0.65
2022-11-26T04:34:40.050Z,0.68
2022-11-26T04:37:28.854Z,0.68
2022-11-26T04:40:18.607Z,2.10
2022-11-26T04:43:07.364Z,0.88
2022-11-26T04:45:57.450Z,0.55
2022-11-26T04:48:46.124Z,0.88
2022-11-26T04:51:34.753Z,0.52
2022-11-26T04:54:23.557Z,0.70
2022-11-26T04:57:12.225Z,0.50
2022-11-26T05:00:00.949Z,0.60
2022-11-26T05:02:50.926Z,0.73
2022-11-26T05:05:39.705Z,0.60
2022-11-26T05:08:28.500Z,0.50
2022-11-26T05:11:17.163Z,0.80
2022-11-26T05:14:05.825Z,0.70
2022-11-26T05:16:54.567Z,0.57
2022-11-26T05:19:44.580Z,0.43
2022-11-26T05:22:33.304Z,0.60
2022-11-26T05:25:22.001Z,1.33
2022-11-26T05:28:10.603Z,2.38
2022-11-26T05:31:00.787Z,0.40
2022-11-26T05:33:49.402Z,2.75
2022-11-26T05:36:39.358Z,0.43
2022-11-26T05:39:28.155Z,0.60
2022-11-26T05:42:16.732Z,0.50
2022-11-26T05:45:06.395Z,0.50
2022-11-26T05:47:55.064Z,0.40
2022-11-26T05:50:43.665Z,0.63
2022-11-26T05:53:33.621Z,0.50
2022-11-26T05:56:22.175Z,0.35
2022-11-26T05:59:10.809Z,0.60
2022-11-26T06:01:59.523Z,0.40
2022-11-26T06:04:48.150Z,0.57
2022-11-26T06:07:40.619Z,0.50
2022-11-26T06:10:33.422Z,0.35
2022-11-26T06:13:22.082Z,0.52
2022-11-26T06:16:10.875Z,0.50
2022-11-26T06:19:00.062Z,0.32
2022-11-26T06:21:48.644Z,0.65
2022-11-26T06:24:37.953Z,0.35
2022-11-26T06:27:28.126Z,1.00
2022-11-26T06:30:16.784Z,0.28
2022-11-26T06:33:05.444Z,0.40
2022-11-26T06:35:54.036Z,0.45
2022-11-26T06:38:43.307Z,0.63
2022-11-26T06:41:34.120Z,0.55
2022-11-26T06:44:24.123Z,1.23
2022-11-26T06:47:12.969Z,0.40
2022-11-26T06:50:04.150Z,0.20
2022-11-26T06:52:56.603Z,0.70
2022-11-26T06:55:45.379Z,0.43
2022-11-26T06:58:34.239Z,0.32
2022-11-26T07:01:26.112Z,7.32
2022-11-26T07:04:15.024Z,0.40
2022-11-26T07:07:03.676Z,0.10
2022-11-26T07:09:52.202Z,0.75
2022-11-26T07:12:40.879Z,0.20
2022-11-26T07:15:29.638Z,0.20
2022-11-26T07:18:19.617Z,1.00
2022-11-26T07:21:09.175Z,1.75
2022-11-26T07:23:57.864Z,0.77
2022-11-26T07:26:46.539Z,2.60
2022-11-26T07:29:35.206Z,1.42
2022-11-26T07:32:23.847Z,1.60
2022-11-26T07:35:13.926Z,0.55
2022-11-26T07:38:02.569Z,1.38
2022-11-26T07:40:51.179Z,3.58
2022-11-26T07:43:40.851Z,2.38
2022-11-26T07:46:29.519Z,3.72
2022-11-26T07:49:18.237Z,3.50
2022-11-26T07:52:08.301Z,3.50
2022-11-26T07:54:56.855Z,3.90
2022-11-26T07:57:45.420Z,2.35
2022-11-26T08:00:34.022Z,1.23
2022-11-26T08:03:22.686Z,4.20
2022-11-26T08:06:13.352Z,4.68
2022-11-26T08:09:04.690Z,1.70
2022-11-26T08:11:53.287Z,3.58
2022-11-26T08:14:41.859Z,0.73
2022-11-26T08:17:30.479Z,1.55
2022-11-26T08:20:20.001Z,1.38
2022-11-26T08:23:10.840Z,1.85
2022-11-26T08:29:09.608Z,5.30
2022-11-26T08:31:58.198Z,1.73
2022-11-26T08:34:46.757Z,4.45
2022-11-26T08:37:35.373Z,3.95
2022-11-26T08:40:24.006Z,5.32
2022-11-26T08:43:13.955Z,4.90
2022-11-26T08:46:02.611Z,1.73
2022-11-26T08:48:51.240Z,3.40
2022-11-26T08:51:39.895Z,6.95
2022-11-26T08:54:30.766Z,2.80
2022-11-26T08:57:19.330Z,5.57
2022-11-26T09:00:10.661Z,2.30
2022-11-26T09:02:59.355Z,3.95
2022-11-26T09:05:48.082Z,3.88
2022-11-26T09:08:57.875Z,6.07
2022-11-26T09:11:49.421Z,5.80
2022-11-26T09:14:40.287Z,3.75
2022-11-26T09:17:31.662Z,2.35
2022-11-26T09:20:20.559Z,3.83
2022-11-26T09:23:09.192Z,7.45
2022-11-26T09:25:57.871Z,1.42
2022-11-26T09:28:46.500Z,1.80
2022-11-26T09:31:35.141Z,1.08
2022-11-26T09:34:25.188Z,2.25
2022-11-26T09:37:13.746Z,4.70
2022-11-26T09:40:02.449Z,1.10
2022-11-26T09:43:04.389Z,2.17
2022-11-26T09:45:59.251Z,6.05
2022-11-26T09:48:48.142Z,2.88
2022-11-26T09:51:38.239Z,6.03
2022-11-26T09:54:28.844Z,2.10
2022-11-26T09:57:23.553Z,5.72
2022-11-26T10:00:24.529Z,6.70
2022-11-26T10:03:15.645Z,4.57
2022-11-26T10:06:08.230Z,5.50
2022-11-26T10:09:19.519Z,3.60
2022-11-26T10:12:24.717Z,6.45
2022-11-26T10:15:17.906Z,4.57
2022-11-26T10:18:17.000Z,3.35
2022-11-26T10:21:26.956Z,2.58
2022-11-26T10:24:28.433Z,8.25
2022-11-26T10:27:18.327Z,3.58
2022-11-26T10:30:18.343Z,10.20
2022-11-26T10:33:08.416Z,5.40
2022-11-26T10:35:57.076Z,3.20
2022-11-26T10:38:45.715Z,4.57
2022-11-26T10:41:37.561Z,3.45
2022-11-26T10:44:40.094Z,1.02
2022-11-26T10:47:30.466Z,11.15
2022-11-26T10:53:34.148Z,6.70
2022-11-26T10:56:25.234Z,10.63
2022-11-26T10:59:22.363Z,3.88
2022-11-26T11:02:26.676Z,3.47
2022-11-26T11:05:21.976Z,2.58
2022-11-26T11:08:15.564Z,3.70
2022-11-26T11:11:05.545Z,2.88
2022-11-26T11:13:54.620Z,3.72
2022-11-26T11:16:46.565Z,3.97
2022-11-26T11:19:36.518Z,3.10
2022-11-26T11:22:25.318Z,1.70
2022-11-26T11:25:23.259Z,4.20
2022-11-26T11:28:18.599Z,1.77
2022-11-26T11:31:11.389Z,2.95
2022-11-26T11:34:21.751Z,3.47
2022-11-26T11:37:15.729Z,4.60
2022-11-26T11:40:06.288Z,3.47
2022-11-26T11:42:58.277Z,1.70
2022-11-26T11:45:53.665Z,2.45
2022-11-26T11:48:50.187Z,5.05
2022-11-26T11:51:45.875Z,2.05
2022-11-26T11:54:41.290Z,4.93
2022-11-26T11:57:41.192Z,2.55
2022-11-26T12:00:35.400Z,2.40
2022-11-26T12:03:49.726Z,2.85
2022-11-26T12:06:44.322Z,2.92
2022-11-26T12:09:36.551Z,2.88
2022-11-26T12:12:27.670Z,1.92
2022-11-26T12:15:24.668Z,1.70
2022-11-26T12:18:20.280Z,4.35
2022-11-26T12:21:11.801Z,3.53
2022-11-26T12:24:04.437Z,2.80
2022-11-26T12:26:55.165Z,1.83
2022-11-26T12:29:46.182Z,3.65
2022-11-26T12:32:38.149Z,2.55
2022-11-26T12:35:30.969Z,2.38
2022-11-26T12:38:25.097Z,3.13
2022-11-26T12:41:18.958Z,5.15
2022-11-26T12:44:13.633Z,2.88
2022-11-26T12:47:11.442Z,0.30
2022-11-26T12:50:07.763Z,2.22
2022-11-26T12:53:02.491Z,1.10
2022-11-26T12:55:56.262Z,0.70
2022-11-26T12:58:51.646Z,4.10
2022-11-26T13:01:40.387Z,4.60
2022-11-26T13:04:49.269Z,36.60
2022-11-26T13:07:55.675Z,29.08
2022-11-26T13:10:54.675Z,20.15
2022-11-26T13:13:47.186Z,18.05
2022-11-26T13:16:40.310Z,14.30
2022-11-26T13:19:32.896Z,13.35
2022-11-26T13:22:55.277Z,10.82
2022-11-26T13:25:58.539Z,5.53
2022-11-26T13:29:02.654Z,10.20
2022-11-26T13:32:01.913Z,7.63
2022-11-26T13:35:02.430Z,4.80
2022-11-26T13:38:12.765Z,6.03
2022-11-26T13:41:22.366Z,10.38
2022-11-26T13:44:51.718Z,4.20
2022-11-26T13:47:44.911Z,5.03
2022-11-26T13:50:37.912Z,6.22
2022-11-26T13:53:30.138Z,5.50
2022-11-26T13:56:22.530Z,7.85
2022-11-26T13:59:17.937Z,4.55
2022-11-26T14:02:42.326Z,4.78
2022-11-26T14:06:07.997Z,4.43
2022-11-26T14:08:58.601Z,6.57
2022-11-26T14:11:58.008Z,8.27
2022-11-26T14:14:47.895Z,3.70
2022-11-26T14:17:57.075Z,5.63
2022-11-26T14:21:15.502Z,3.88
2022-11-26T14:24:05.830Z,9.70
2022-11-26T14:26:54.843Z,4.97
2022-11-26T14:29:43.477Z,8.95
2022-11-26T14:32:35.820Z,7.85
2022-11-26T14:35:33.627Z,4.90
2022-11-26T14:38:26.174Z,4.30
2022-11-26T14:41:16.104Z,7.43
2022-11-26T14:44:08.714Z,4.65
2022-11-26T14:46:59.880Z,13.48
2022-11-26T14:49:51.218Z,6.75
2022-11-26T14:52:41.689Z,5.40
2022-11-26T14:55:31.466Z,5.43
2022-11-26T14:58:32.656Z,4.70
2022-11-26T15:01:23.899Z,5.95
2022-11-26T15:04:24.158Z,3.75
2022-11-26T15:07:25.544Z,7.80
2022-11-26T15:10:22.086Z,2.13
2022-11-26T15:13:15.854Z,10.15
2022-11-26T15:16:26.989Z,12.38
2022-11-26T15:19:16.511Z,9.05
2022-11-26T15:22:07.988Z,6.53
2022-11-26T15:24:56.806Z,4.82
2022-11-26T15:27:53.302Z,23.15
2022-11-26T15:30:41.945Z,24.77
2022-11-26T15:33:33.653Z,22.35
2022-11-26T15:36:22.334Z,42.38
2022-11-26T15:39:25.876Z,29.52
2022-11-26T15:42:28.192Z,17.88
2022-11-26T15:45:18.127Z,39.53
2022-11-26T15:48:07.753Z,44.25
2022-11-26T15:50:59.316Z,99.18
2022-11-26T15:53:49.722Z,40.33
2022-11-26T15:56:39.646Z,41.95
2022-11-26T15:59:29.936Z,24.48
2022-11-26T16:02:20.605Z,34.17
2022-11-26T16:05:23.992Z,27.77
2022-11-26T16:08:26.873Z,24.40
2022-11-26T16:11:23.601Z,17.52
2022-11-26T16:14:29.062Z,14.60
2022-11-26T16:17:19.439Z,23.55
2022-11-26T16:20:18.361Z,16.48
2022-11-26T16:23:07.013Z,15.73
2022-11-26T16:26:11.909Z,11.55
2022-11-26T16:29:00.529Z,23.08
2022-11-26T16:31:49.151Z,5.85
2022-11-26T16:34:38.169Z,4.72
2022-11-26T16:37:28.727Z,11.32
2022-11-26T16:40:18.970Z,7.82
2022-11-26T16:43:08.962Z,8.02
2022-11-26T16:45:57.656Z,15.65
2022-11-26T16:48:47.118Z,4.68
2022-11-26T16:51:35.748Z,5.40
2022-11-26T16:54:24.299Z,12.23
2022-11-26T16:57:15.807Z,7.35
2022-11-26T17:00:08.618Z,7.10
2022-11-26T17:02:57.271Z,5.97
2022-11-26T17:05:45.951Z,3.28
2022-11-26T17:08:35.975Z,3.97
2022-11-26T17:11:24.995Z,4.75
2022-11-26T17:14:14.087Z,7.25
2022-11-26T17:17:04.164Z,7.53
2022-11-26T17:19:53.030Z,4.18
2022-11-26T17:22:41.894Z,2.70
2022-11-26T17:25:31.008Z,2.63
2022-11-26T17:28:20.999Z,6.15
2022-11-26T17:31:09.605Z,2.03
2022-11-26T17:33:59.702Z,1.88
2022-11-26T17:36:49.490Z,4.05
2022-11-26T17:39:38.435Z,1.83
2022-11-26T17:42:29.093Z,2.65
2022-11-26T17:45:21.071Z,4.63
2022-11-26T17:48:13.368Z,1.38
2022-11-26T17:51:03.416Z,2.15
2022-11-26T17:53:52.044Z,2.60
2022-11-26T17:56:40.759Z,3.15
2022-11-26T17:59:29.639Z,5.60
2022-11-26T18:02:18.294Z,3.45
2022-11-26T18:05:07.810Z,5.65
2022-11-26T18:07:58.109Z,1.25
2022-11-26T18:10:46.888Z,7.90
2022-11-26T18:13:35.593Z,7.60
2022-11-26T18:16:24.288Z,299.25
2022-11-26T18:19:14.715Z,789.25
2022-11-26T18:22:03.488Z,761.80
2022-11-26T18:24:57.068Z,687.53
2022-11-26T18:27:46.474Z,580.03
2022-11-26T18:30:35.117Z,192.15
2022-11-26T18:33:23.762Z,536.47
2022-11-26T18:36:12.729Z,705.03
2022-11-26T18:39:01.777Z,910.70
2022-11-26T18:41:54.493Z,1074.32
2022-11-26T18:44:45.933Z,1107.78
2022-11-26T18:47:34.893Z,1127.68
2022-11-26T18:50:23.468Z,1108.00
2022-11-26T18:53:12.188Z,967.85
2022-11-26T18:56:01.029Z,950.03
2022-11-26T18:58:51.788Z,906.58
2022-11-26T19:01:40.620Z,825.58
2022-11-26T19:04:29.329Z,759.20
2022-11-26T19:07:18.006Z,715.78
2022-11-26T19:10:07.934Z,718.28
2022-11-26T19:12:56.573Z,419.63
2022-11-26T19:15:47.655Z,155.50
2022-11-26T19:18:43.157Z,174.07
2022-11-26T19:21:33.075Z,230.60
2022-11-26T19:24:21.768Z,261.42
2022-11-26T19:27:10.360Z,256.02
2022-11-26T19:29:58.946Z,246.50
2022-11-26T19:32:48.898Z,231.30
2022-11-26T19:35:40.340Z,227.35
2022-11-26T19:38:28.977Z,217.30
2022-11-26T19:41:21.318Z,228.05
2022-11-26T19:44:13.958Z,233.68
2022-11-26T19:47:02.668Z,222.80
2022-11-26T19:49:52.658Z,210.60
2022-11-26T19:52:46.467Z,217.27
2022-11-26T19:55:36.443Z,209.88
2022-11-26T19:58:25.404Z,209.77
2022-11-26T20:01:15.635Z,203.18
2022-11-26T20:04:06.015Z,192.23
2022-11-26T20:06:56.072Z,191.18
2022-11-26T20:09:44.671Z,196.70
2022-11-26T20:12:33.356Z,191.38
2022-11-26T20:15:21.981Z,184.45
2022-11-26T20:18:11.305Z,188.45
2022-11-26T20:21:00.182Z,176.50
2022-11-26T20:23:52.117Z,182.65
2022-11-26T20:26:42.995Z,190.00
2022-11-26T20:29:31.696Z,166.57
2022-11-26T20:32:20.257Z,162.57
2022-11-26T20:35:09.439Z,162.73
2022-11-26T20:37:58.095Z,168.90
2022-11-26T20:40:48.132Z,149.93
2022-11-26T20:43:36.739Z,156.05
2022-11-26T20:46:26.127Z,148.30
2022-11-26T20:49:16.083Z,138.73
2022-11-26T20:52:07.669Z,140.10
2022-11-26T20:54:56.344Z,138.13
2022-11-26T20:57:46.283Z,130.90
2022-11-26T21:00:34.897Z,142.18
2022-11-26T21:03:23.832Z,128.15
2022-11-26T21:06:13.988Z,126.18
2022-11-26T21:09:04.328Z,124.15
2022-11-26T21:11:52.999Z,122.03
2022-11-26T21:14:42.918Z,110.47
2022-11-26T21:17:31.634Z,116.55
2022-11-26T21:20:20.739Z,110.25
2022-11-26T21:23:10.006Z,107.57
2022-11-26T21:25:58.578Z,101.63
2022-11-26T21:28:51.274Z,94.68
2022-11-26T21:31:41.270Z,99.25
2022-11-26T21:34:29.879Z,103.55
2022-11-26T21:37:18.856Z,96.13
2022-11-26T21:40:08.765Z,95.28
2022-11-26T21:42:57.511Z,93.45
2022-11-26T21:45:46.076Z,91.53
2022-11-26T21:48:36.644Z,76.13
2022-11-26T21:51:27.097Z,88.40
2022-11-26T21:54:16.371Z,84.82
2022-11-26T21:57:05.204Z,82.78
2022-11-26T21:59:53.740Z,73.80
2022-11-26T22:02:42.425Z,71.38
2022-11-26T22:05:32.407Z,70.28
2022-11-26T22:08:21.140Z,72.70
2022-11-26T22:11:10.932Z,72.55
2022-11-26T22:13:59.635Z,66.00
2022-11-26T22:16:51.632Z,68.28
2022-11-26T22:19:40.484Z,60.65
2022-11-26T22:22:30.661Z,63.30
2022-11-26T22:25:19.263Z,59.75
2022-11-26T22:28:07.935Z,62.28
2022-11-26T22:30:56.725Z,54.03
2022-11-26T22:33:45.490Z,59.03
2022-11-26T22:36:34.598Z,60.33
2022-11-26T22:39:24.583Z,55.47
2022-11-26T22:42:13.853Z,53.70
2022-11-26T22:45:03.026Z,49.38
2022-11-26T22:47:52.927Z,55.10
2022-11-26T22:50:41.730Z,49.47
2022-11-26T22:53:30.568Z,48.22
2022-11-26T22:56:20.717Z,49.55
2022-11-26T22:59:10.709Z,46.15
2022-11-26T23:01:59.355Z,46.05
2022-11-26T23:04:48.289Z,54.47
2022-11-26T23:07:36.959Z,47.90
2022-11-26T23:10:28.262Z,46.20
2022-11-26T23:13:18.808Z,46.17
2022-11-26T23:16:09.097Z,40.97
2022-11-26T23:18:58.804Z,44.38
2022-11-26T23:21:47.789Z,40.35
2022-11-26T23:24:36.618Z,37.60
2022-11-26T23:27:25.316Z,38.72
2022-11-26T23:30:15.784Z,33.83
2022-11-26T23:33:04.690Z,37.38
2022-11-26T23:35:53.336Z,34.75
2022-11-26T23:38:42.309Z,38.47
2022-11-26T23:41:31.070Z,31.80
2022-11-26T23:44:19.709Z,32.20
2022-11-26T23:47:09.981Z,32.45
2022-11-26T23:50:00.989Z,35.17
2022-11-26T23:52:49.872Z,32.28
2022-11-26T23:55:38.594Z,27.00
2022-11-26T23:58:27.259Z,31.08
